sensor_id;sensor_type;location;lat;lon;timestamp;temperature;humidity
40255;DHT22;25973;52.368;4.940;2023-04-03T00:01:53;6.00;99.90
40255;DHT22;25973;52.368;4.940;2023-04-03T00:04:19;6.00;99.90
40255;DHT22;25973;52.368;4.940;2023-04-03T00:06:44;6.00;99.90
40255;DHT22;25973;52.368;4.940;2023-04-03T00:09:10;5.90;99.90
40255;DHT22;25973;52.368;4.940;2023-04-03T00:11:35;5.90;99.90
40255;DHT22;25973;52.368;4.940;2023-04-03T00:14:01;5.90;99.90
40255;DHT22;25973;52.368;4.940;2023-04-03T00:16:26;5.90;99.90
40255;DHT22;25973;52.368;4.940;2023-04-03T00:18:52;5.90;99.90
40255;DHT22;25973;52.368;4.940;2023-04-03T00:21:17;5.90;99.90
40255;DHT22;25973;52.368;4.940;2023-04-03T00:23:42;5.90;99.90
40255;DHT22;25973;52.368;4.940;2023-04-03T00:26:08;5.90;99.90
40255;DHT22;25973;52.368;4.940;2023-04-03T00:28:33;5.80;99.90
40255;DHT22;25973;52.368;4.940;2023-04-03T00:30:59;5.80;99.90
40255;DHT22;25973;52.368;4.940;2023-04-03T00:33:25;5.80;99.90
40255;DHT22;25973;52.368;4.940;2023-04-03T00:35:51;5.80;99.90
40255;DHT22;25973;52.368;4.940;2023-04-03T00:38:17;5.80;99.90
40255;DHT22;25973;52.368;4.940;2023-04-03T00:40:43;5.70;99.90
40255;DHT22;25973;52.368;4.940;2023-04-03T00:43:16;5.70;99.90
40255;DHT22;25973;52.368;4.940;2023-04-03T00:45:43;5.70;99.90
40255;DHT22;25973;52.368;4.940;2023-04-03T00:48:13;5.60;99.90
40255;DHT22;25973;52.368;4.940;2023-04-03T00:50:41;5.60;99.90
40255;DHT22;25973;52.368;4.940;2023-04-03T00:53:08;5.70;99.90
40255;DHT22;25973;52.368;4.940;2023-04-03T00:55:36;5.70;99.90
40255;DHT22;25973;52.368;4.940;2023-04-03T00:58:03;5.70;99.90
40255;DHT22;25973;52.368;4.940;2023-04-03T01:00:30;5.60;99.90
40255;DHT22;25973;52.368;4.940;2023-04-03T01:02:55;5.60;99.90
40255;DHT22;25973;52.368;4.940;2023-04-03T01:05:21;5.60;99.90
40255;DHT22;25973;52.368;4.940;2023-04-03T01:07:47;5.60;99.90
40255;DHT22;25973;52.368;4.940;2023-04-03T01:10:14;5.60;99.90
40255;DHT22;25973;52.368;4.940;2023-04-03T01:12:41;5.60;99.90
40255;DHT22;25973;52.368;4.940;2023-04-03T01:15:11;5.50;99.90
40255;DHT22;25973;52.368;4.940;2023-04-03T01:17:40;5.50;99.90
40255;DHT22;25973;52.368;4.940;2023-04-03T01:22:46;5.50;99.90
40255;DHT22;25973;52.368;4.940;2023-04-03T01:25:14;5.40;99.90
40255;DHT22;25973;52.368;4.940;2023-04-03T01:27:39;5.40;99.90
40255;DHT22;25973;52.368;4.940;2023-04-03T01:30:05;5.40;99.90
40255;DHT22;25973;52.368;4.940;2023-04-03T01:32:31;5.40;99.90
40255;DHT22;25973;52.368;4.940;2023-04-03T01:34:57;5.50;99.90
40255;DHT22;25973;52.368;4.940;2023-04-03T01:37:22;5.40;99.90
40255;DHT22;25973;52.368;4.940;2023-04-03T01:39:48;5.40;99.90
40255;DHT22;25973;52.368;4.940;2023-04-03T01:42:13;5.40;99.90
40255;DHT22;25973;52.368;4.940;2023-04-03T01:44:39;5.40;99.90
40255;DHT22;25973;52.368;4.940;2023-04-03T01:47:07;5.40;99.90
40255;DHT22;25973;52.368;4.940;2023-04-03T01:49:33;5.30;99.90
40255;DHT22;25973;52.368;4.940;2023-04-03T01:51:58;5.30;99.90
40255;DHT22;25973;52.368;4.940;2023-04-03T01:54:24;5.30;99.90
40255;DHT22;25973;52.368;4.940;2023-04-03T01:56:50;5.30;99.90
40255;DHT22;25973;52.368;4.940;2023-04-03T01:59:15;5.20;99.90
40255;DHT22;25973;52.368;4.940;2023-04-03T02:01:43;5.30;99.90
40255;DHT22;25973;52.368;4.940;2023-04-03T02:04:10;5.30;99.90
40255;DHT22;25973;52.368;4.940;2023-04-03T02:06:36;5.30;99.90
40255;DHT22;25973;52.368;4.940;2023-04-03T02:09:01;5.20;99.90
40255;DHT22;25973;52.368;4.940;2023-04-03T02:11:27;5.20;99.90
40255;DHT22;25973;52.368;4.940;2023-04-03T02:13:52;5.20;99.90
40255;DHT22;25973;52.368;4.940;2023-04-03T02:16:18;5.20;99.90
40255;DHT22;25973;52.368;4.940;2023-04-03T02:18:43;5.20;99.90
40255;DHT22;25973;52.368;4.940;2023-04-03T02:21:09;5.20;99.90
40255;DHT22;25973;52.368;4.940;2023-04-03T02:23:34;5.20;99.90
40255;DHT22;25973;52.368;4.940;2023-04-03T02:26:12;5.20;99.90
40255;DHT22;25973;52.368;4.940;2023-04-03T02:28:37;5.20;99.90
40255;DHT22;25973;52.368;4.940;2023-04-03T02:31:04;5.20;99.90
40255;DHT22;25973;52.368;4.940;2023-04-03T02:33:31;5.20;99.90
40255;DHT22;25973;52.368;4.940;2023-04-03T02:35:57;5.10;99.90
40255;DHT22;25973;52.368;4.940;2023-04-03T02:38:23;5.10;99.90
40255;DHT22;25973;52.368;4.940;2023-04-03T02:40:49;5.00;99.90
40255;DHT22;25973;52.368;4.940;2023-04-03T02:43:14;5.00;99.90
40255;DHT22;25973;52.368;4.940;2023-04-03T02:45:40;4.90;99.90
40255;DHT22;25973;52.368;4.940;2023-04-03T02:48:05;4.90;99.90
40255;DHT22;25973;52.368;4.940;2023-04-03T02:50:31;4.90;99.90
40255;DHT22;25973;52.368;4.940;2023-04-03T02:52:57;4.90;99.90
40255;DHT22;25973;52.368;4.940;2023-04-03T02:55:22;4.90;99.90
40255;DHT22;25973;52.368;4.940;2023-04-03T02:57:47;4.90;99.90
40255;DHT22;25973;52.368;4.940;2023-04-03T03:00:13;4.90;99.90
40255;DHT22;25973;52.368;4.940;2023-04-03T03:02:39;4.80;99.90
40255;DHT22;25973;52.368;4.940;2023-04-03T03:05:05;4.90;99.90
40255;DHT22;25973;52.368;4.940;2023-04-03T03:07:31;4.80;99.90
40255;DHT22;25973;52.368;4.940;2023-04-03T03:09:56;4.80;99.90
40255;DHT22;25973;52.368;4.940;2023-04-03T03:12:22;4.80;99.90
40255;DHT22;25973;52.368;4.940;2023-04-03T03:14:48;4.80;99.90
40255;DHT22;25973;52.368;4.940;2023-04-03T03:17:14;4.80;99.90
40255;DHT22;25973;52.368;4.940;2023-04-03T03:19:39;4.80;99.90
40255;DHT22;25973;52.368;4.940;2023-04-03T03:22:05;4.80;99.90
40255;DHT22;25973;52.368;4.940;2023-04-03T03:24:30;4.80;99.90
40255;DHT22;25973;52.368;4.940;2023-04-03T03:26:56;4.80;99.90
40255;DHT22;25973;52.368;4.940;2023-04-03T03:29:21;4.90;99.90
40255;DHT22;25973;52.368;4.940;2023-04-03T03:31:47;4.80;99.90
40255;DHT22;25973;52.368;4.940;2023-04-03T03:34:12;4.80;99.90
40255;DHT22;25973;52.368;4.940;2023-04-03T03:36:38;4.70;99.90
40255;DHT22;25973;52.368;4.940;2023-04-03T03:39:04;4.70;99.90
40255;DHT22;25973;52.368;4.940;2023-04-03T03:41:29;4.60;99.90
40255;DHT22;25973;52.368;4.940;2023-04-03T03:43:55;4.60;99.90
40255;DHT22;25973;52.368;4.940;2023-04-03T03:46:20;4.60;99.90
40255;DHT22;25973;52.368;4.940;2023-04-03T03:48:46;4.60;99.90
40255;DHT22;25973;52.368;4.940;2023-04-03T03:51:11;4.60;99.90
40255;DHT22;25973;52.368;4.940;2023-04-03T03:53:36;4.50;99.90
40255;DHT22;25973;52.368;4.940;2023-04-03T03:56:02;4.50;99.90
40255;DHT22;25973;52.368;4.940;2023-04-03T03:58:28;4.50;99.90
40255;DHT22;25973;52.368;4.940;2023-04-03T04:00:54;4.50;99.90
40255;DHT22;25973;52.368;4.940;2023-04-03T04:03:20;4.60;99.90
40255;DHT22;25973;52.368;4.940;2023-04-03T04:05:46;4.60;99.90
40255;DHT22;25973;52.368;4.940;2023-04-03T04:08:11;4.50;99.90
40255;DHT22;25973;52.368;4.940;2023-04-03T04:10:37;4.50;99.90
40255;DHT22;25973;52.368;4.940;2023-04-03T04:13:02;4.60;99.90
40255;DHT22;25973;52.368;4.940;2023-04-03T04:15:28;4.50;99.90
40255;DHT22;25973;52.368;4.940;2023-04-03T04:17:54;4.50;99.90
40255;DHT22;25973;52.368;4.940;2023-04-03T04:20:20;4.50;99.90
40255;DHT22;25973;52.368;4.940;2023-04-03T04:22:45;4.50;99.90
40255;DHT22;25973;52.368;4.940;2023-04-03T04:25:11;4.50;99.90
40255;DHT22;25973;52.368;4.940;2023-04-03T04:27:36;4.50;99.90
40255;DHT22;25973;52.368;4.940;2023-04-03T04:30:02;4.50;99.90
40255;DHT22;25973;52.368;4.940;2023-04-03T04:32:28;4.50;99.90
40255;DHT22;25973;52.368;4.940;2023-04-03T04:34:54;4.50;99.90
40255;DHT22;25973;52.368;4.940;2023-04-03T04:37:19;4.50;99.90
40255;DHT22;25973;52.368;4.940;2023-04-03T04:39:45;4.50;99.90
40255;DHT22;25973;52.368;4.940;2023-04-03T04:42:10;4.50;99.90
40255;DHT22;25973;52.368;4.940;2023-04-03T04:44:38;4.50;99.90
40255;DHT22;25973;52.368;4.940;2023-04-03T04:47:03;4.50;99.90
40255;DHT22;25973;52.368;4.940;2023-04-03T04:49:29;4.40;99.90
40255;DHT22;25973;52.368;4.940;2023-04-03T04:51:54;4.30;99.90
40255;DHT22;25973;52.368;4.940;2023-04-03T04:54:20;4.30;99.90
40255;DHT22;25973;52.368;4.940;2023-04-03T04:56:46;4.20;99.90
40255;DHT22;25973;52.368;4.940;2023-04-03T04:59:11;4.20;99.90
40255;DHT22;25973;52.368;4.940;2023-04-03T05:01:37;4.20;99.90
40255;DHT22;25973;52.368;4.940;2023-04-03T05:04:02;4.20;99.90
40255;DHT22;25973;52.368;4.940;2023-04-03T05:06:28;4.20;99.90
40255;DHT22;25973;52.368;4.940;2023-04-03T05:08:55;4.20;99.90
40255;DHT22;25973;52.368;4.940;2023-04-03T05:11:20;4.20;99.90
40255;DHT22;25973;52.368;4.940;2023-04-03T05:13:46;4.20;99.90
40255;DHT22;25973;52.368;4.940;2023-04-03T05:16:11;4.20;99.90
40255;DHT22;25973;52.368;4.940;2023-04-03T05:18:37;4.20;99.90
40255;DHT22;25973;52.368;4.940;2023-04-03T05:21:03;4.20;99.90
40255;DHT22;25973;52.368;4.940;2023-04-03T05:23:28;4.20;99.90
40255;DHT22;25973;52.368;4.940;2023-04-03T05:25:54;4.20;99.90
40255;DHT22;25973;52.368;4.940;2023-04-03T05:28:19;4.30;99.90
40255;DHT22;25973;52.368;4.940;2023-04-03T05:30:44;4.20;99.90
40255;DHT22;25973;52.368;4.940;2023-04-03T05:33:10;4.20;99.90
40255;DHT22;25973;52.368;4.940;2023-04-03T05:35:36;4.30;99.90
40255;DHT22;25973;52.368;4.940;2023-04-03T05:38:04;4.20;99.90
40255;DHT22;25973;52.368;4.940;2023-04-03T05:40:30;4.30;99.90
40255;DHT22;25973;52.368;4.940;2023-04-03T05:42:55;4.30;99.90
40255;DHT22;25973;52.368;4.940;2023-04-03T05:45:21;4.30;99.90
40255;DHT22;25973;52.368;4.940;2023-04-03T05:47:46;4.30;99.90
40255;DHT22;25973;52.368;4.940;2023-04-03T05:50:12;4.40;99.90
40255;DHT22;25973;52.368;4.940;2023-04-03T05:52:38;4.30;99.90
40255;DHT22;25973;52.368;4.940;2023-04-03T05:55:05;4.30;99.90
40255;DHT22;25973;52.368;4.940;2023-04-03T05:57:31;4.20;99.90
40255;DHT22;25973;52.368;4.940;2023-04-03T05:59:56;4.20;99.90
40255;DHT22;25973;52.368;4.940;2023-04-03T06:02:23;4.20;99.90
40255;DHT22;25973;52.368;4.940;2023-04-03T06:04:49;4.20;99.90
40255;DHT22;25973;52.368;4.940;2023-04-03T06:07:16;4.10;99.90
40255;DHT22;25973;52.368;4.940;2023-04-03T06:09:42;4.10;99.90
40255;DHT22;25973;52.368;4.940;2023-04-03T06:12:08;4.10;99.90
40255;DHT22;25973;52.368;4.940;2023-04-03T06:14:33;4.10;99.90
40255;DHT22;25973;52.368;4.940;2023-04-03T06:16:59;4.10;99.90
40255;DHT22;25973;52.368;4.940;2023-04-03T06:19:25;4.10;99.90
40255;DHT22;25973;52.368;4.940;2023-04-03T06:21:51;4.20;99.90
40255;DHT22;25973;52.368;4.940;2023-04-03T06:24:17;4.20;99.90
40255;DHT22;25973;52.368;4.940;2023-04-03T06:26:43;4.20;99.90
40255;DHT22;25973;52.368;4.940;2023-04-03T06:29:08;4.30;99.90
40255;DHT22;25973;52.368;4.940;2023-04-03T06:31:34;4.30;99.90
40255;DHT22;25973;52.368;4.940;2023-04-03T06:34:01;4.40;99.90
40255;DHT22;25973;52.368;4.940;2023-04-03T06:36:27;4.40;99.90
40255;DHT22;25973;52.368;4.940;2023-04-03T06:38:52;4.50;99.90
40255;DHT22;25973;52.368;4.940;2023-04-03T06:41:18;4.50;99.90
40255;DHT22;25973;52.368;4.940;2023-04-03T06:43:44;4.60;99.90
40255;DHT22;25973;52.368;4.940;2023-04-03T06:46:16;4.70;99.90
40255;DHT22;25973;52.368;4.940;2023-04-03T06:48:42;4.90;99.90
40255;DHT22;25973;52.368;4.940;2023-04-03T06:51:11;5.10;99.90
40255;DHT22;25973;52.368;4.940;2023-04-03T06:53:37;5.20;99.90
40255;DHT22;25973;52.368;4.940;2023-04-03T06:56:02;5.20;99.90
40255;DHT22;25973;52.368;4.940;2023-04-03T06:58:28;5.40;99.90
40255;DHT22;25973;52.368;4.940;2023-04-03T07:00:53;5.60;99.90
40255;DHT22;25973;52.368;4.940;2023-04-03T07:03:19;5.70;99.90
40255;DHT22;25973;52.368;4.940;2023-04-03T07:05:45;5.90;99.90
40255;DHT22;25973;52.368;4.940;2023-04-03T07:08:11;6.10;99.90
40255;DHT22;25973;52.368;4.940;2023-04-03T07:10:37;6.10;99.90
40255;DHT22;25973;52.368;4.940;2023-04-03T07:13:03;6.10;99.90
40255;DHT22;25973;52.368;4.940;2023-04-03T07:15:28;6.20;99.90
40255;DHT22;25973;52.368;4.940;2023-04-03T07:17:55;6.40;99.90
40255;DHT22;25973;52.368;4.940;2023-04-03T07:20:21;6.70;99.90
40255;DHT22;25973;52.368;4.940;2023-04-03T07:22:46;7.00;99.90
40255;DHT22;25973;52.368;4.940;2023-04-03T07:25:11;7.40;99.90
40255;DHT22;25973;52.368;4.940;2023-04-03T07:27:37;7.60;99.90
40255;DHT22;25973;52.368;4.940;2023-04-03T07:30:03;7.80;99.90
40255;DHT22;25973;52.368;4.940;2023-04-03T07:32:28;7.90;99.90
40255;DHT22;25973;52.368;4.940;2023-04-03T07:34:54;8.10;99.90
40255;DHT22;25973;52.368;4.940;2023-04-03T07:37:20;8.30;99.90
40255;DHT22;25973;52.368;4.940;2023-04-03T07:39:45;8.50;99.90
40255;DHT22;25973;52.368;4.940;2023-04-03T07:42:11;8.60;99.90
40255;DHT22;25973;52.368;4.940;2023-04-03T07:44:37;8.50;99.90
40255;DHT22;25973;52.368;4.940;2023-04-03T07:47:03;8.60;99.90
40255;DHT22;25973;52.368;4.940;2023-04-03T07:49:28;8.60;99.90
40255;DHT22;25973;52.368;4.940;2023-04-03T07:51:54;8.60;99.90
40255;DHT22;25973;52.368;4.940;2023-04-03T07:54:19;8.70;99.90
40255;DHT22;25973;52.368;4.940;2023-04-03T07:56:45;8.70;99.90
40255;DHT22;25973;52.368;4.940;2023-04-03T07:59:10;8.70;99.90
40255;DHT22;25973;52.368;4.940;2023-04-03T08:01:36;8.70;99.90
40255;DHT22;25973;52.368;4.940;2023-04-03T08:04:02;8.80;99.90
40255;DHT22;25973;52.368;4.940;2023-04-03T08:06:27;9.00;99.90
40255;DHT22;25973;52.368;4.940;2023-04-03T08:08:55;9.10;99.90
40255;DHT22;25973;52.368;4.940;2023-04-03T08:11:21;9.10;99.90
40255;DHT22;25973;52.368;4.940;2023-04-03T08:13:46;9.20;99.90
40255;DHT22;25973;52.368;4.940;2023-04-03T08:16:13;9.30;99.90
40255;DHT22;25973;52.368;4.940;2023-04-03T08:18:41;9.40;99.90
40255;DHT22;25973;52.368;4.940;2023-04-03T08:21:08;9.50;99.90
40255;DHT22;25973;52.368;4.940;2023-04-03T08:23:33;9.40;99.90
40255;DHT22;25973;52.368;4.940;2023-04-03T08:26:04;9.30;99.90
40255;DHT22;25973;52.368;4.940;2023-04-03T08:28:30;9.40;99.90
40255;DHT22;25973;52.368;4.940;2023-04-03T08:30:55;9.60;99.90
40255;DHT22;25973;52.368;4.940;2023-04-03T08:33:21;9.80;99.90
40255;DHT22;25973;52.368;4.940;2023-04-03T08:35:46;9.90;99.90
40255;DHT22;25973;52.368;4.940;2023-04-03T08:38:12;10.00;99.90
40255;DHT22;25973;52.368;4.940;2023-04-03T08:40:38;10.00;99.90
40255;DHT22;25973;52.368;4.940;2023-04-03T08:43:15;9.80;99.90
40255;DHT22;25973;52.368;4.940;2023-04-03T08:45:49;9.50;99.90
40255;DHT22;25973;52.368;4.940;2023-04-03T08:48:17;9.50;99.90
40255;DHT22;25973;52.368;4.940;2023-04-03T08:50:48;9.60;99.90
40255;DHT22;25973;52.368;4.940;2023-04-03T08:53:16;9.50;99.90
40255;DHT22;25973;52.368;4.940;2023-04-03T08:55:47;9.40;99.90
40255;DHT22;25973;52.368;4.940;2023-04-03T08:58:23;9.50;99.90
40255;DHT22;25973;52.368;4.940;2023-04-03T09:00:50;9.50;99.90
40255;DHT22;25973;52.368;4.940;2023-04-03T09:03:17;9.50;99.90
40255;DHT22;25973;52.368;4.940;2023-04-03T09:05:45;9.30;99.30
40255;DHT22;25973;52.368;4.940;2023-04-03T09:08:14;9.20;99.90
40255;DHT22;25973;52.368;4.940;2023-04-03T09:10:44;9.30;99.90
40255;DHT22;25973;52.368;4.940;2023-04-03T09:13:15;9.20;99.90
40255;DHT22;25973;52.368;4.940;2023-04-03T09:15:43;9.20;99.70
40255;DHT22;25973;52.368;4.940;2023-04-03T09:18:16;9.30;99.50
40255;DHT22;25973;52.368;4.940;2023-04-03T09:25:57;9.60;98.80
40255;DHT22;25973;52.368;4.940;2023-04-03T09:28:23;9.60;98.70
40255;DHT22;25973;52.368;4.940;2023-04-03T09:30:48;9.70;97.60
40255;DHT22;25973;52.368;4.940;2023-04-03T09:33:14;9.80;96.40
40255;DHT22;25973;52.368;4.940;2023-04-03T09:35:39;10.00;95.00
40255;DHT22;25973;52.368;4.940;2023-04-03T09:40:38;9.90;94.00
40255;DHT22;25973;52.368;4.940;2023-04-03T09:45:42;9.80;94.30
40255;DHT22;25973;52.368;4.940;2023-04-03T09:48:08;9.90;94.90
40255;DHT22;25973;52.368;4.940;2023-04-03T09:50:35;9.90;93.20
40255;DHT22;25973;52.368;4.940;2023-04-03T09:53:05;9.70;92.30
40255;DHT22;25973;52.368;4.940;2023-04-03T09:55:31;9.70;92.80
40255;DHT22;25973;52.368;4.940;2023-04-03T09:58:03;9.70;92.50
40255;DHT22;25973;52.368;4.940;2023-04-03T10:00:36;9.80;92.30
40255;DHT22;25973;52.368;4.940;2023-04-03T10:03:03;10.00;91.80
40255;DHT22;25973;52.368;4.940;2023-04-03T10:05:31;10.20;91.90
40255;DHT22;25973;52.368;4.940;2023-04-03T10:10:44;10.40;91.90
40255;DHT22;25973;52.368;4.940;2023-04-03T10:13:11;10.50;90.40
40255;DHT22;25973;52.368;4.940;2023-04-03T10:15:39;10.60;91.50
40255;DHT22;25973;52.368;4.940;2023-04-03T10:18:12;10.70;90.90
40255;DHT22;25973;52.368;4.940;2023-04-03T10:20:43;10.70;90.20
40255;DHT22;25973;52.368;4.940;2023-04-03T10:26:08;11.10;89.50
40255;DHT22;25973;52.368;4.940;2023-04-03T10:28:43;11.20;89.10
40255;DHT22;25973;52.368;4.940;2023-04-03T10:34:13;11.60;88.90
40255;DHT22;25973;52.368;4.940;2023-04-03T10:36:56;11.80;86.90
40255;DHT22;25973;52.368;4.940;2023-04-03T10:44:29;12.70;84.80
40255;DHT22;25973;52.368;4.940;2023-04-03T10:47:00;12.80;83.10
40255;DHT22;25973;52.368;4.940;2023-04-03T10:52:15;12.80;82.10
40255;DHT22;25973;52.368;4.940;2023-04-03T10:57:10;13.80;77.50
40255;DHT22;25973;52.368;4.940;2023-04-03T10:59:38;13.90;76.50
40255;DHT22;25973;52.368;4.940;2023-04-03T11:02:07;13.90;75.20
40255;DHT22;25973;52.368;4.940;2023-04-03T11:04:37;14.00;76.50
40255;DHT22;25973;52.368;4.940;2023-04-03T11:07:08;14.00;75.90
40255;DHT22;25973;52.368;4.940;2023-04-03T11:09:35;14.70;76.30
40255;DHT22;25973;52.368;4.940;2023-04-03T11:12:17;15.00;73.90
40255;DHT22;25973;52.368;4.940;2023-04-03T11:14:43;15.60;73.90
40255;DHT22;25973;52.368;4.940;2023-04-03T11:19:57;13.80;74.00
40255;DHT22;25973;52.368;4.940;2023-04-03T11:24:56;11.60;78.20
40255;DHT22;25973;52.368;4.940;2023-04-03T11:27:22;11.10;78.60
40255;DHT22;25973;52.368;4.940;2023-04-03T11:29:48;10.50;78.80
40255;DHT22;25973;52.368;4.940;2023-04-03T11:34:45;9.70;80.90
40255;DHT22;25973;52.368;4.940;2023-04-03T11:37:17;9.40;78.90
40255;DHT22;25973;52.368;4.940;2023-04-03T11:39:48;9.10;81.80
40255;DHT22;25973;52.368;4.940;2023-04-03T11:42:16;9.30;84.00
40255;DHT22;25973;52.368;4.940;2023-04-03T11:44:43;9.40;83.40
40255;DHT22;25973;52.368;4.940;2023-04-03T11:47:09;9.50;81.70
40255;DHT22;25973;52.368;4.940;2023-04-03T11:55:34;9.50;83.20
40255;DHT22;25973;52.368;4.940;2023-04-03T12:13:37;9.20;83.30
40255;DHT22;25973;52.368;4.940;2023-04-03T12:16:04;9.20;84.70
40255;DHT22;25973;52.368;4.940;2023-04-03T12:21:01;9.30;83.10
40255;DHT22;25973;52.368;4.940;2023-04-03T12:23:29;9.30;83.90
40255;DHT22;25973;52.368;4.940;2023-04-03T12:25:59;9.20;83.20
40255;DHT22;25973;52.368;4.940;2023-04-03T12:28:25;9.20;83.70
40255;DHT22;25973;52.368;4.940;2023-04-03T12:30:51;9.10;82.90
40255;DHT22;25973;52.368;4.940;2023-04-03T12:35:44;9.20;84.40
40255;DHT22;25973;52.368;4.940;2023-04-03T12:38:19;9.10;84.70
40255;DHT22;25973;52.368;4.940;2023-04-03T12:45:52;9.20;84.40
40255;DHT22;25973;52.368;4.940;2023-04-03T12:48:25;9.30;84.30
40255;DHT22;25973;52.368;4.940;2023-04-03T12:50:51;9.20;84.40
40255;DHT22;25973;52.368;4.940;2023-04-03T12:53:18;9.20;84.60
40255;DHT22;25973;52.368;4.940;2023-04-03T12:55:44;9.30;86.30
40255;DHT22;25973;52.368;4.940;2023-04-03T12:58:14;9.30;85.30
40255;DHT22;25973;52.368;4.940;2023-04-03T13:00:40;9.30;87.10
40255;DHT22;25973;52.368;4.940;2023-04-03T13:03:06;9.40;88.10
40255;DHT22;25973;52.368;4.940;2023-04-03T13:05:32;9.40;85.90
40255;DHT22;25973;52.368;4.940;2023-04-03T13:07:59;9.50;85.50
40255;DHT22;25973;52.368;4.940;2023-04-03T13:10:25;9.60;83.70
40255;DHT22;25973;52.368;4.940;2023-04-03T13:12:57;9.50;83.90
40255;DHT22;25973;52.368;4.940;2023-04-03T13:15:27;9.50;84.90
40255;DHT22;25973;52.368;4.940;2023-04-03T13:17:53;9.50;84.30
40255;DHT22;25973;52.368;4.940;2023-04-03T13:20:21;9.50;85.60
40255;DHT22;25973;52.368;4.940;2023-04-03T13:22:49;9.50;85.00
40255;DHT22;25973;52.368;4.940;2023-04-03T13:25:15;9.60;84.40
40255;DHT22;25973;52.368;4.940;2023-04-03T13:27:41;9.60;84.50
40255;DHT22;25973;52.368;4.940;2023-04-03T13:32:55;9.50;83.80
40255;DHT22;25973;52.368;4.940;2023-04-03T13:35:32;9.50;85.90
40255;DHT22;25973;52.368;4.940;2023-04-03T13:38:00;9.50;85.40
40255;DHT22;25973;52.368;4.940;2023-04-03T13:40:26;9.60;84.50
40255;DHT22;25973;52.368;4.940;2023-04-03T13:42:59;9.50;84.70
40255;DHT22;25973;52.368;4.940;2023-04-03T13:45:26;9.60;86.90
40255;DHT22;25973;52.368;4.940;2023-04-03T13:48:05;9.50;85.40
40255;DHT22;25973;52.368;4.940;2023-04-03T13:50:31;9.60;87.50
40255;DHT22;25973;52.368;4.940;2023-04-03T13:53:01;9.60;87.90
40255;DHT22;25973;52.368;4.940;2023-04-03T13:55:28;9.70;88.20
40255;DHT22;25973;52.368;4.940;2023-04-03T13:57:58;9.70;89.30
40255;DHT22;25973;52.368;4.940;2023-04-03T14:00:33;9.80;88.50
40255;DHT22;25973;52.368;4.940;2023-04-03T14:02:59;9.80;88.50
40255;DHT22;25973;52.368;4.940;2023-04-03T14:05:25;9.80;88.20
40255;DHT22;25973;52.368;4.940;2023-04-03T14:07:54;9.80;86.70
40255;DHT22;25973;52.368;4.940;2023-04-03T14:10:20;9.80;85.90
40255;DHT22;25973;52.368;4.940;2023-04-03T14:12:46;9.70;86.10
40255;DHT22;25973;52.368;4.940;2023-04-03T14:17:43;9.50;86.90
40255;DHT22;25973;52.368;4.940;2023-04-03T14:20:19;9.50;88.40
40255;DHT22;25973;52.368;4.940;2023-04-03T14:22:45;9.50;89.90
40255;DHT22;25973;52.368;4.940;2023-04-03T14:25:11;9.50;88.30
40255;DHT22;25973;52.368;4.940;2023-04-03T14:27:38;9.60;89.60
40255;DHT22;25973;52.368;4.940;2023-04-03T14:30:05;9.60;91.20
40255;DHT22;25973;52.368;4.940;2023-04-03T14:32:31;9.70;90.70
40255;DHT22;25973;52.368;4.940;2023-04-03T14:34:56;9.70;90.30
40255;DHT22;25973;52.368;4.940;2023-04-03T14:37:24;9.70;88.20
40255;DHT22;25973;52.368;4.940;2023-04-03T14:39:51;9.70;89.30
40255;DHT22;25973;52.368;4.940;2023-04-03T14:42:21;9.70;89.90
40255;DHT22;25973;52.368;4.940;2023-04-03T14:44:47;9.70;91.00
40255;DHT22;25973;52.368;4.940;2023-04-03T14:47:13;9.80;91.10
40255;DHT22;25973;52.368;4.940;2023-04-03T14:49:40;9.80;89.80
40255;DHT22;25973;52.368;4.940;2023-04-03T14:52:05;9.80;89.20
40255;DHT22;25973;52.368;4.940;2023-04-03T14:54:31;9.80;90.00
40255;DHT22;25973;52.368;4.940;2023-04-03T14:56:57;9.80;90.80
40255;DHT22;25973;52.368;4.940;2023-04-03T14:59:23;9.70;90.50
40255;DHT22;25973;52.368;4.940;2023-04-03T15:01:48;9.70;90.30
40255;DHT22;25973;52.368;4.940;2023-04-03T15:04:14;9.70;90.10
40255;DHT22;25973;52.368;4.940;2023-04-03T15:06:40;9.60;89.40
40255;DHT22;25973;52.368;4.940;2023-04-03T15:09:11;9.50;90.40
40255;DHT22;25973;52.368;4.940;2023-04-03T15:11:40;9.50;90.30
40255;DHT22;25973;52.368;4.940;2023-04-03T15:14:05;9.50;91.00
40255;DHT22;25973;52.368;4.940;2023-04-03T15:16:31;9.50;90.90
40255;DHT22;25973;52.368;4.940;2023-04-03T15:18:56;9.50;91.00
40255;DHT22;25973;52.368;4.940;2023-04-03T15:21:21;9.50;91.60
40255;DHT22;25973;52.368;4.940;2023-04-03T15:23:47;9.50;91.30
40255;DHT22;25973;52.368;4.940;2023-04-03T15:26:13;9.60;91.40
40255;DHT22;25973;52.368;4.940;2023-04-03T15:28:42;9.60;91.40
40255;DHT22;25973;52.368;4.940;2023-04-03T15:31:09;9.60;91.80
40255;DHT22;25973;52.368;4.940;2023-04-03T15:33:34;9.70;92.20
40255;DHT22;25973;52.368;4.940;2023-04-03T15:36:00;9.70;91.90
40255;DHT22;25973;52.368;4.940;2023-04-03T15:38:26;9.60;91.40
40255;DHT22;25973;52.368;4.940;2023-04-03T15:40:51;9.60;91.50
40255;DHT22;25973;52.368;4.940;2023-04-03T15:43:17;9.60;91.10
40255;DHT22;25973;52.368;4.940;2023-04-03T15:45:43;9.60;90.50
40255;DHT22;25973;52.368;4.940;2023-04-03T15:48:09;9.50;91.50
40255;DHT22;25973;52.368;4.940;2023-04-03T15:50:35;9.50;91.50
40255;DHT22;25973;52.368;4.940;2023-04-03T15:53:01;9.50;91.90
40255;DHT22;25973;52.368;4.940;2023-04-03T15:55:30;9.50;91.90
40255;DHT22;25973;52.368;4.940;2023-04-03T15:57:56;9.40;92.00
40255;DHT22;25973;52.368;4.940;2023-04-03T16:00:22;9.40;92.20
40255;DHT22;25973;52.368;4.940;2023-04-03T16:02:48;9.40;93.00
40255;DHT22;25973;52.368;4.940;2023-04-03T16:05:15;9.40;92.80
40255;DHT22;25973;52.368;4.940;2023-04-03T16:07:42;9.40;92.50
40255;DHT22;25973;52.368;4.940;2023-04-03T16:10:08;9.30;92.30
40255;DHT22;25973;52.368;4.940;2023-04-03T16:12:34;9.30;92.90
40255;DHT22;25973;52.368;4.940;2023-04-03T16:15:00;9.30;93.40
40255;DHT22;25973;52.368;4.940;2023-04-03T16:17:25;9.30;93.20
40255;DHT22;25973;52.368;4.940;2023-04-03T16:19:51;9.30;91.40
40255;DHT22;25973;52.368;4.940;2023-04-03T16:22:17;9.40;91.70
40255;DHT22;25973;52.368;4.940;2023-04-03T16:24:42;9.40;91.80
40255;DHT22;25973;52.368;4.940;2023-04-03T16:27:08;9.50;92.60
40255;DHT22;25973;52.368;4.940;2023-04-03T16:29:33;9.40;93.20
40255;DHT22;25973;52.368;4.940;2023-04-03T16:31:59;9.40;94.50
40255;DHT22;25973;52.368;4.940;2023-04-03T16:34:24;9.40;93.90
40255;DHT22;25973;52.368;4.940;2023-04-03T16:36:51;9.40;93.70
40255;DHT22;25973;52.368;4.940;2023-04-03T16:39:17;9.40;94.10
40255;DHT22;25973;52.368;4.940;2023-04-03T16:41:43;9.30;94.30
40255;DHT22;25973;52.368;4.940;2023-04-03T16:44:08;9.20;95.00
40255;DHT22;25973;52.368;4.940;2023-04-03T16:46:34;9.20;95.50
40255;DHT22;25973;52.368;4.940;2023-04-03T16:48:59;9.30;95.50
40255;DHT22;25973;52.368;4.940;2023-04-03T16:51:25;9.20;94.80
40255;DHT22;25973;52.368;4.940;2023-04-03T16:53:50;9.20;95.30
40255;DHT22;25973;52.368;4.940;2023-04-03T16:56:16;9.10;95.30
40255;DHT22;25973;52.368;4.940;2023-04-03T16:58:41;9.10;96.00